Time;durP1;ratioP1;P1;durP2;ratioP2;P2;SDS_P1;SDS_P2;PMS_P1;PMS_P2;Temp;Humidity;BMP_temperature;BMP_pressure;BME280_temperature;BME280_humidity;BME280_pressure;Samples;Min_cycle;Max_cycle;Signal;HPM_P1;HPM_P2
2022/02/01 00:00:44;;;;;;;18.83;7.45;;;2.00;1.00;;;2.07;75.94;100644.88;4955823;29;20215;-77
2022/02/01 00:03:16;;;;;;;19.10;8.50;;;2.10;1.00;;;2.07;76.03;100646.72;4954621;28;20200;-75
2022/02/01 00:05:51;;;;;;;17.33;7.47;;;2.10;1.00;;;2.09;75.98;100640.22;4954067;28;20192;-79
2022/02/01 00:08:29;;;;;;;21.33;7.57;;;2.10;1.00;;;2.07;76.01;100638.69;4954108;28;20207;-76
2022/02/01 00:11:08;;;;;;;23.83;7.72;;;2.10;1.00;;;2.07;76.43;100636.03;4954654;29;20239;-77
2022/02/01 00:13:43;;;;;;;21.13;7.30;;;2.00;1.00;;;1.89;76.94;100638.69;4954061;29;20184;-76
2022/02/01 00:16:40;;;;;;;28.73;8.80;;;2.00;1.00;;;1.99;76.64;100643.94;4953256;29;20210;-76
2022/02/01 00:19:40;;;;;;;20.33;7.80;;;2.00;21.30;;;1.94;76.97;100640.91;4954333;28;20303;-76
2022/02/01 00:36:10;;;;;;;27.60;8.75;;;2.00;71.30;;;2.09;76.92;100674.06;4951550;28;20200;-77
2022/02/01 00:38:47;;;;;;;22.15;8.85;;;2.00;1.00;;;2.13;77.34;100680.81;4954517;29;20219;-75
2022/02/01 00:41:18;;;;;;;20.38;7.70;;;2.10;1.00;;;2.17;76.97;100675.00;4953657;29;20177;-76
2022/02/01 00:43:46;;;;;;;23.30;8.25;;;2.10;1.00;;;2.06;77.28;100672.56;4953751;28;20223;-77
2022/02/01 00:46:15;;;;;;;30.70;8.00;;;2.10;99.90;;;2.10;77.39;100679.25;4953423;29;20199;-76
2022/02/01 00:48:43;;;;;;;16.33;7.93;;;2.10;1.00;;;2.13;77.44;100684.28;4955758;28;20722;-76
2022/02/01 00:51:13;;;;;;;19.75;10.35;;;2.10;1.00;;;2.14;77.24;100685.13;4951862;29;20279;-77
2022/02/01 00:53:42;;;;;;;20.90;7.95;;;2.10;1.00;;;2.14;77.62;100687.78;4951933;28;20196;-77
2022/02/01 00:56:14;;;;;;;24.75;10.90;;;2.10;1.00;;;2.09;77.41;100698.94;4952305;29;20189;-77
2022/02/01 00:58:45;;;;;;;18.38;8.40;;;2.10;1.00;;;2.09;77.74;100698.94;4954044;28;20209;-76
2022/02/01 01:01:14;;;;;;;29.83;9.20;;;2.10;1.00;;;2.09;77.78;100698.94;4954111;28;20561;-74
2022/02/01 01:03:45;;;;;;;22.33;8.43;;;2.10;99.90;;;2.10;77.92;100713.13;4957496;28;20566;-75
2022/02/01 01:06:15;;;;;;;20.13;10.90;;;2.10;99.90;;;2.07;77.98;100708.94;4958095;29;20192;-74
2022/02/01 01:08:45;;;;;;;19.50;8.60;;;2.00;45.50;;;2.14;78.22;100701.13;4955422;28;20231;-75
2022/02/01 01:11:13;;;;;;;31.33;10.57;;;2.10;1.00;;;2.14;77.88;100701.97;4957372;28;20638;-75
2022/02/01 01:14:22;;;;;;;32.50;9.25;;;2.10;1.00;;;2.10;78.04;100692.59;4957239;28;20168;-75
2022/02/01 01:44:51;;;;;;;31.65;11.65;;;2.00;99.90;;;2.01;78.58;100668.66;4947701;29;20640;-76
2022/02/01 01:53:12;;;;;;;28.70;12.27;;;2.00;99.90;;;1.92;78.85;100674.91;4955632;28;20185;-76
2022/02/01 01:55:48;;;;;;;28.45;12.52;;;2.00;74.90;;;2.06;78.56;100677.91;4954282;28;20168;-76
2022/02/01 01:58:18;;;;;;;25.60;11.98;;;2.00;99.90;;;2.09;78.17;100671.41;4954578;28;20698;-76
2022/02/01 02:01:11;;;;;;;30.90;11.75;;;2.00;99.90;;;2.11;78.64;100670.28;4953209;29;20188;-77
2022/02/01 02:03:41;;;;;;;18.35;11.55;;;2.10;1.00;;;2.11;78.29;100670.28;4954227;28;20181;-77
2022/02/01 02:06:11;;;;;;;28.88;12.70;;;2.10;99.90;;;2.05;78.59;100668.19;4954358;28;20176;-76
2022/02/01 02:08:43;;;;;;;28.52;11.80;;;2.10;99.90;;;2.19;78.28;100661.47;4955190;28;20212;-75
2022/02/01 02:11:19;;;;;;;22.75;11.45;;;2.10;1.00;;;2.19;78.23;100672.16;4969831;28;20271;-74
2022/02/01 02:16:52;;;;;;;24.25;11.57;;;2.10;1.00;;;2.26;77.81;100677.72;4931408;28;20376;-75
2022/02/01 02:19:23;;;;;;;32.33;11.73;;;2.20;99.90;;;2.23;77.74;100668.19;4955392;28;20748;-75
2022/02/01 02:21:56;;;;;;;24.88;12.52;;;2.20;1.00;;;2.27;77.59;100668.75;4954897;28;20699;-75
2022/02/01 02:24:27;;;;;;;33.85;12.35;;;2.20;1.00;;;2.28;77.51;100675.72;4953941;28;20212;-76
2022/02/01 02:26:58;;;;;;;24.67;13.35;;;2.20;99.90;;;2.30;77.56;100671.94;4952778;28;20196;-74
2022/02/01 02:29:27;;;;;;;31.63;11.23;;;2.20;1.00;;;2.25;77.70;100668.88;4954909;28;20227;-76
2022/02/01 02:31:56;;;;;;;17.73;11.65;;;2.20;99.90;;;2.24;77.86;100672.53;4954338;28;20678;-76
2022/02/01 02:34:26;;;;;;;25.42;11.40;;;2.20;1.00;;;2.37;77.63;100653.47;4954300;28;20193;-76
2022/02/01 02:37:01;;;;;;;22.45;11.50;;;2.30;1.00;;;2.38;77.42;100665.81;4954011;28;20189;-76
2022/02/01 02:39:33;;;;;;;27.88;12.15;;;2.30;1.00;;;2.33;77.36;100666.28;4954137;28;20294;-76
2022/02/01 02:42:12;;;;;;;19.77;12.50;;;2.30;99.90;;;2.34;77.77;100672.44;4953524;28;20222;-75
2022/02/01 02:45:05;;;;;;;32.08;12.68;;;2.30;99.90;;;2.24;78.25;100658.34;4953583;28;20718;-74
2022/02/01 02:47:33;;;;;;;19.80;12.68;;;2.20;99.90;;;2.41;77.60;100669.03;4953340;28;20259;-75
2022/02/01 02:50:05;;;;;;;26.83;10.68;;;2.30;1.00;;;2.33;77.57;100668.94;4954691;28;20592;-75
2022/02/01 02:52:35;;;;;;;30.40;12.30;;;2.30;99.90;;;2.32;77.88;100679.78;4954877;28;20203;-75
2022/02/01 02:55:04;;;;;;;21.48;12.85;;;2.30;1.00;;;2.27;78.33;100674.91;4955056;28;20307;-77
2022/02/01 02:57:33;;;;;;;31.05;12.85;;;2.30;99.90;;;2.25;78.13;100665.38;4957090;28;20692;-74
2022/02/01 03:00:01;;;;;;;25.40;13.13;;;2.30;99.90;;;2.29;78.47;100662.22;4957772;28;20181;-76
2022/02/01 03:02:32;;;;;;;32.03;13.45;;;2.30;1.00;;;2.41;78.33;100654.81;4958123;28;20194;-75
2022/02/01 03:05:01;;;;;;;30.02;13.52;;;2.40;71.70;;;2.58;78.07;100661.94;4958141;28;20707;-75
2022/02/01 03:07:29;;;;;;;31.35;14.55;;;2.50;1.00;;;2.61;77.61;100659.00;4957037;28;20196;-76
2022/02/01 03:09:58;;;;;;;28.80;11.98;;;2.50;1.00;;;2.56;77.87;100659.47;4956482;28;20515;-76
2022/02/01 03:12:46;;;;;;;25.83;12.10;;;2.50;1.00;;;2.53;77.23;100648.22;4953126;28;20188;-75
2022/02/01 03:15:35;;;;;;;27.40;12.80;;;2.50;99.90;;;2.57;77.94;100649.59;4952967;28;20231;-75
2022/02/01 03:20:50;;;;;;;23.42;13.93;;;2.50;99.90;;;2.63;77.05;100646.28;4953493;29;20188;-76
2022/02/01 03:23:18;;;;;;;23.08;12.65;;;2.60;99.90;;;2.59;77.34;100643.09;4951913;28;20220;-77
2022/02/01 03:25:49;;;;;;;25.38;12.40;;;2.60;74.70;;;2.62;76.93;100648.13;4952095;28;20208;-75
2022/02/01 03:28:18;;;;;;;27.33;13.85;;;2.60;1.00;;;2.62;77.05;100633.94;4952550;28;20215;-76
2022/02/01 03:30:46;;;;;;;25.67;13.10;;;2.60;1.00;;;2.57;77.26;100638.91;4952250;28;20242;-76
2022/02/01 03:33:15;;;;;;;18.45;11.73;;;2.50;1.00;;;2.60;76.88;100643.94;4952228;28;20219;-76
2022/02/01 03:35:43;;;;;;;24.20;14.05;;;2.60;1.00;;;2.57;77.75;100639.75;4951964;28;20199;-76
2022/02/01 03:38:11;;;;;;;30.83;14.55;;;2.50;99.90;;;2.66;77.58;100632.66;4951825;28;20212;-79
2022/02/01 03:40:40;;;;;;;27.27;15.60;;;2.60;99.90;;;2.71;77.17;100643.66;4951869;28;20259;-76
2022/02/01 03:43:09;;;;;;;24.88;14.13;;;2.60;99.90;;;2.69;76.90;100648.34;4952503;28;20191;-74
2022/02/01 03:45:38;;;;;;;25.52;13.52;;;2.70;1.00;;;2.73;76.72;100651.53;4951360;29;20239;-76
2022/02/01 03:48:07;;;;;;;30.02;13.63;;;2.60;1.00;;;2.71;76.85;100661.56;4952037;28;20234;-76
2022/02/01 03:50:35;;;;;;;32.10;14.77;;;2.60;1.00;;;2.70;76.74;100666.06;4951932;28;20184;-77
2022/02/01 03:53:04;;;;;;;29.88;14.10;;;2.70;1.00;;;2.61;76.63;100664.34;4966731;28;20751;-76
2022/02/01 03:55:32;;;;;;;24.48;14.88;;;2.60;1.00;;;2.62;76.82;100669.50;4952459;28;20830;-76
2022/02/01 03:58:00;;;;;;;27.65;13.65;;;2.60;1.00;;;2.61;76.82;100672.34;4952507;28;20216;-77
2022/02/01 04:00:30;;;;;;;23.70;15.57;;;2.60;1.00;;;2.65;76.58;100671.03;4952927;28;20195;-77
2022/02/01 04:03:03;;;;;;;34.00;17.98;;;2.60;1.00;;;2.67;76.38;100682.38;4951914;28;20192;-74
2022/02/01 04:05:34;;;;;;;26.30;15.18;;;2.60;1.00;;;2.64;76.61;100677.38;4951433;28;20204;-74
2022/02/01 04:08:04;;;;;;;23.92;13.48;;;2.60;99.90;;;2.58;76.67;100656.59;4950260;29;20220;-75
2022/02/01 04:10:32;;;;;;;32.83;15.63;;;2.60;99.90;;;2.58;76.69;100653.94;4951922;28;20184;-76
2022/02/01 04:13:01;;;;;;;33.00;15.73;;;2.60;99.90;;;2.59;76.52;100644.94;4951358;28;20207;-75
2022/02/01 04:15:31;;;;;;;34.25;14.52;;;2.60;99.90;;;2.63;76.44;100648.97;4951616;28;20596;-76
2022/02/01 04:17:59;;;;;;;28.50;14.57;;;2.60;99.90;;;2.58;76.39;100635.25;4950725;28;20215;-75
2022/02/01 04:20:28;;;;;;;33.35;15.75;;;2.60;99.90;;;2.57;76.50;100636.22;4952126;28;20235;-75
2022/02/01 04:22:56;;;;;;;28.52;15.73;;;2.50;99.90;;;2.62;76.38;100636.59;4951403;28;20184;-76
2022/02/01 04:25:25;;;;;;;25.35;14.45;;;2.60;99.90;;;2.54;76.40;100626.72;4951657;28;20212;-76
2022/02/01 04:27:53;;;;;;;22.45;14.00;;;2.50;99.90;;;2.61;76.29;100629.59;4951809;28;20191;-75
2022/02/01 04:30:25;;;;;;;26.35;15.18;;;2.50;99.90;;;2.56;76.53;100621.22;4951909;28;20730;-76
2022/02/01 04:32:57;;;;;;;28.17;15.05;;;2.50;99.90;;;2.53;76.35;100616.16;4951780;28;20674;-74
2022/02/01 04:35:27;;;;;;;25.10;15.23;;;2.50;99.90;;;2.55;76.38;100604.34;4952778;28;20184;-74
2022/02/01 04:37:57;;;;;;;25.40;15.85;;;2.50;99.90;;;2.60;76.43;100606.53;4955540;28;20618;-75
2022/02/01 04:40:28;;;;;;;22.35;11.98;;;2.50;99.90;;;2.44;76.55;100587.75;4970903;28;20200;-75
2022/02/01 04:42:57;;;;;;;26.50;14.55;;;2.50;99.90;;;2.41;76.80;100582.72;4957142;28;20185;-76
2022/02/01 04:45:26;;;;;;;29.05;16.73;;;2.40;99.90;;;2.48;76.17;100578.41;4956392;28;20204;-74
2022/02/01 04:47:55;;;;;;;23.17;12.90;;;2.50;1.00;;;2.47;76.69;100585.59;4956039;28;20722;-75
2022/02/01 04:50:28;;;;;;;26.67;17.70;;;2.40;1.00;;;2.50;76.40;100589.78;4955791;28;20196;-76
2022/02/01 04:52:58;;;;;;;27.52;15.05;;;2.40;1.00;;;2.50;76.49;100589.78;4970763;28;20192;-75
2022/02/01 04:55:37;;;;;;;34.40;17.75;;;2.50;99.90;;;2.45;76.64;100582.25;4955688;28;20256;-76
2022/02/01 04:58:05;;;;;;;30.67;15.80;;;2.40;99.90;;;2.55;77.00;100579.47;4955447;28;20211;-77
2022/02/01 05:00:34;;;;;;;25.45;14.70;;;2.50;1.00;;;2.66;76.03;100579.22;4956032;28;20662;-75
2022/02/01 05:03:04;;;;;;;29.30;15.55;;;2.60;1.00;;;2.66;76.05;100584.56;4956852;28;20180;-76
2022/02/01 05:05:32;;;;;;;26.45;12.05;;;2.60;99.90;;;2.57;76.29;100580.13;4956759;28;20291;-76
2022/02/01 05:08:03;;;;;;;28.00;16.00;;;2.60;99.90;;;2.61;76.64;100581.50;4955874;29;20720;-76
2022/02/01 05:10:34;;;;;;;30.05;16.77;;;2.60;99.90;;;2.63;76.55;100584.84;4955105;28;20596;-76
2022/02/01 05:13:28;;;;;;;31.48;14.88;;;2.60;99.90;;;2.68;76.62;100576.34;4956666;28;20184;-76
2022/02/01 05:16:03;;;;;;;25.13;14.75;;;2.60;99.90;;;2.65;76.67;100585.53;4956655;28;20173;-76
2022/02/01 05:18:43;;;;;;;32.50;13.50;;;2.60;99.90;;;2.51;77.12;100570.09;4991575;23;20227;-76
2022/02/01 05:21:18;;;;;;;33.30;16.83;;;2.60;1.00;;;2.52;77.13;100575.25;4977911;28;20226;-76
2022/02/01 05:23:47;;;;;;;28.05;16.00;;;2.50;1.00;;;2.57;77.55;100567.63;4995486;28;20314;-76
2022/02/01 05:26:16;;;;;;;13.40;8.63;;;2.50;99.90;;;2.41;77.64;100569.38;4987161;28;20219;-76
2022/02/01 05:28:45;;;;;;;26.52;15.57;;;2.50;99.90;;;2.30;78.59;100561.63;4975375;28;20202;-75
2022/02/01 05:31:14;;;;;;;25.38;15.60;;;2.40;99.90;;;2.23;78.77;100573.94;4971936;28;20195;-76
2022/02/01 05:33:44;;;;;;;27.85;13.82;;;2.30;1.00;;;2.07;79.66;100583.50;5084619;23;20236;-69
2022/02/01 05:36:16;;;;;;;19.63;13.82;;;2.20;99.90;;;1.97;79.85;100577.41;4936184;29;20620;-69
2022/02/01 05:38:48;;;;;;;23.65;15.68;;;2.10;99.90;;;1.98;80.44;100579.09;4936196;29;20576;-69
2022/02/01 05:41:17;;;;;;;22.80;13.10;;;2.00;99.90;;;2.03;80.48;100582.09;4937754;29;20264;-69
2022/02/01 05:43:48;;;;;;;26.08;15.82;;;2.00;99.90;;;1.99;80.63;100596.75;4952068;28;20201;-68
2022/02/01 05:46:18;;;;;;;20.88;14.05;;;2.00;99.90;;;1.90;80.95;100603.00;4937475;29;20251;-69
2022/02/01 05:48:48;;;;;;;25.55;15.43;;;1.90;99.90;;;1.88;80.94;100607.69;4932810;29;20225;-69
2022/02/01 05:51:16;;;;;;;25.02;13.43;;;1.90;99.90;;;1.89;81.17;100606.66;4933435;29;20197;-69
2022/02/01 05:53:45;;;;;;;19.88;12.93;;;1.90;99.90;;;1.83;80.98;100607.31;4917858;29;20198;-69
2022/02/01 05:56:39;;;;;;;25.48;15.43;;;1.80;99.90;;;1.87;81.21;100598.00;4918780;29;20169;-70
2022/02/01 05:59:07;;;;;;;21.83;13.40;;;1.90;99.90;;;1.83;81.23;100595.78;4919020;29;20217;-69
2022/02/01 06:01:36;;;;;;;33.60;11.05;;;1.80;99.90;;;1.78;81.32;100609.59;4919184;29;20181;-69
2022/02/01 06:04:06;;;;;;;22.10;13.10;;;1.80;99.90;;;1.85;81.59;100615.13;4917514;29;20200;-69
2022/02/01 06:06:34;;;;;;;28.13;14.05;;;1.80;99.90;;;1.89;81.63;100612.00;4917658;29;20228;-70
2022/02/01 06:09:03;;;;;;;23.88;15.23;;;1.80;99.90;;;1.94;81.35;100614.22;4918200;29;20210;-69
2022/02/01 06:11:32;;;;;;;25.50;12.50;;;1.90;99.90;;;2.01;81.55;100616.13;4918081;29;20218;-69
2022/02/01 06:14:00;;;;;;;25.73;10.85;;;2.00;99.90;;;1.98;81.21;100621.78;4918277;29;20182;-70
2022/02/01 06:16:29;;;;;;;29.08;15.88;;;2.00;99.90;;;2.00;81.42;100619.78;4917792;29;20174;-70
2022/02/01 06:18:57;;;;;;;21.25;14.60;;;2.00;99.90;;;2.00;81.22;100625.13;4917462;29;20214;-69
2022/02/01 06:21:27;;;;;;;22.98;13.50;;;2.00;99.90;;;2.05;81.17;100622.84;4917681;29;20213;-69
2022/02/01 06:23:56;;;;;;;25.58;13.85;;;2.00;99.90;;;2.13;81.17;100619.41;4917768;29;20637;-69
2022/02/01 06:26:25;;;;;;;27.25;15.15;;;2.10;99.90;;;2.01;80.99;100624.13;4916624;29;20209;-70
2022/02/01 06:28:54;;;;;;;29.42;13.93;;;2.00;99.90;;;2.13;81.16;100633.56;4932603;29;20272;-69
2022/02/01 06:31:22;;;;;;;27.35;13.40;;;2.10;99.90;;;2.16;80.97;100630.59;4932663;29;20201;-69
2022/02/01 06:33:51;;;;;;;21.50;12.45;;;2.10;99.90;;;2.17;80.88;100642.97;4916509;29;20648;-70
2022/02/01 06:36:19;;;;;;;27.27;14.27;;;2.10;99.90;;;2.24;80.89;100642.31;4932298;29;20193;-70
2022/02/01 06:38:51;;;;;;;31.35;14.50;;;2.20;99.90;;;2.18;80.64;100649.13;4919496;29;20295;-70
2022/02/01 06:41:23;;;;;;;33.03;15.98;;;2.20;99.90;;;2.22;80.69;100633.66;4916179;29;20185;-70
2022/02/01 06:43:51;;;;;;;28.55;17.33;;;2.20;99.90;;;2.32;80.66;100645.09;4931844;29;20555;-70
2022/02/01 06:46:20;;;;;;;24.05;14.43;;;2.20;99.90;;;2.31;80.57;100638.91;4932240;29;20676;-69
2022/02/01 06:48:48;;;;;;;27.70;16.08;;;2.30;99.90;;;2.34;80.26;100630.56;4917133;29;20214;-70
2022/02/01 06:51:18;;;;;;;33.85;14.02;;;2.30;99.90;;;2.37;80.13;100634.78;4935082;29;20204;-69
2022/02/01 06:53:47;;;;;;;24.30;13.98;;;2.30;99.90;;;2.36;80.11;100631.25;4934991;29;20189;-70
2022/02/01 06:56:20;;;;;;;21.33;11.10;;;2.30;99.90;;;2.41;79.71;100617.44;4936936;29;20183;-70
2022/02/01 06:58:50;;;;;;;17.90;11.45;;;2.30;99.90;;;2.40;79.90;100615.75;4937520;29;20248;-70
2022/02/01 07:01:18;;;;;;;13.63;8.35;;;2.30;99.90;;;2.43;79.81;100610.09;4939737;29;20184;-70
2022/02/01 07:08:28;;;;;;;31.65;13.45;;;2.40;99.90;;;2.33;80.10;100620.03;4898838;29;20217;-69
2022/02/01 07:10:57;;;;;;;21.55;11.45;;;2.30;99.90;;;2.34;80.04;100619.03;4934628;29;20212;-69
2022/02/01 07:13:27;;;;;;;18.30;10.50;;;2.30;99.90;;;2.37;80.11;100622.22;4935613;29;20177;-69
2022/02/01 07:15:56;;;;;;;22.77;11.68;;;2.30;99.90;;;2.35;80.31;100615.38;4934869;29;20193;-69
2022/02/01 07:18:24;;;;;;;19.48;11.00;;;2.30;99.90;;;2.38;79.96;100617.72;4934104;29;20263;-69
2022/02/01 07:20:52;;;;;;;23.63;10.77;;;2.30;99.90;;;2.39;79.53;100614.06;4934459;29;20184;-69
2022/02/01 07:23:23;;;;;;;23.88;10.70;;;2.30;99.90;;;2.33;79.58;100609.34;4934439;29;20231;-70
2022/02/01 07:25:52;;;;;;;24.33;11.52;;;2.30;99.90;;;2.32;79.98;100610.38;4935729;29;20187;-69
2022/02/01 07:28:23;;;;;;;14.63;10.98;;;2.30;99.90;;;2.30;79.60;100617.69;4950167;28;20236;-69
2022/02/01 07:30:54;;;;;;;24.38;11.20;;;2.30;99.90;;;2.35;79.83;100615.38;4935764;29;20184;-69
2022/02/01 07:33:26;;;;;;;20.58;9.23;;;2.30;99.90;;;2.37;79.94;100616.91;4934270;29;20212;-70
2022/02/01 07:35:55;;;;;;;25.85;10.93;;;2.30;99.90;;;2.43;79.82;100616.28;4933694;29;20205;-70
2022/02/01 07:38:26;;;;;;;17.08;10.05;;;2.30;99.90;;;2.48;79.24;100613.13;4950177;28;20248;-70
2022/02/01 07:40:58;;;;;;;20.30;7.55;;;2.40;99.90;;;2.42;79.19;100608.44;4935422;29;20184;-69
2022/02/01 07:43:31;;;;;;;27.25;9.02;;;2.40;99.90;;;2.43;79.30;100605.59;4935317;29;20236;-69
2022/02/01 07:46:07;;;;;;;22.90;9.55;;;2.40;99.90;;;2.45;79.49;100603.63;4936327;29;20177;-69
2022/02/01 07:48:37;;;;;;;20.38;9.45;;;2.40;99.90;;;2.50;79.12;100605.81;4936331;29;20259;-69
2022/02/01 07:51:05;;;;;;;16.63;9.52;;;2.40;99.90;;;2.43;79.16;100591.41;4933902;29;20189;-70
2022/02/01 07:53:34;;;;;;;20.17;9.65;;;2.40;99.90;;;2.44;78.98;100590.41;4936502;29;20192;-70
2022/02/01 07:56:05;;;;;;;22.27;11.20;;;2.40;99.90;;;2.46;79.20;100599.13;4935858;28;20208;-70
2022/02/01 07:58:33;;;;;;;33.50;15.05;;;2.40;99.90;;;2.62;78.77;100602.72;4935796;29;20208;-70
2022/02/01 08:01:03;;;;;;;36.58;16.83;;;2.50;99.90;;;2.71;78.72;100613.47;4934187;29;20189;-69
2022/02/01 08:03:31;;;;;;;15.45;10.13;;;2.60;99.90;;;2.93;77.97;100597.72;4935126;29;20256;-69
2022/02/01 08:06:00;;;;;;;13.40;8.23;;;2.80;99.90;;;2.95;77.35;100601.03;4935162;29;20213;-69
2022/02/01 08:08:29;;;;;;;16.88;8.90;;;2.80;99.90;;;2.93;77.06;100607.56;4934563;29;20609;-69
2022/02/01 08:10:57;;;;;;;19.50;8.93;;;2.90;99.90;;;2.83;77.26;100602.34;4934780;29;20184;-71
2022/02/01 08:16:44;;;;;;;10.63;5.53;;;2.80;99.90;;;2.87;77.08;100602.84;4935113;29;20259;-71
2022/02/01 08:19:25;;;;;;;13.77;6.78;;;2.90;99.90;;;2.95;77.25;100600.22;4934792;29;20692;-70
2022/02/01 08:21:55;;;;;;;15.48;7.30;;;2.90;99.90;;;2.96;77.03;100597.38;4933802;29;20203;-70
2022/02/01 08:24:24;;;;;;;20.73;7.30;;;2.90;99.90;;;2.94;76.91;100594.03;4934977;29;20185;-68
2022/02/01 08:26:52;;;;;;;13.70;6.50;;;2.90;99.90;;;3.00;77.18;100600.59;4935100;29;20608;-69
2022/02/01 08:29:21;;;;;;;11.25;6.38;;;2.90;99.90;;;3.03;76.98;100592.22;4934075;29;20232;-69
2022/02/01 08:31:51;;;;;;;15.77;7.32;;;3.00;99.90;;;3.00;76.63;100577.34;4934963;29;20199;-69
2022/02/01 08:34:20;;;;;;;18.75;8.80;;;3.00;99.90;;;3.01;77.10;100584.38;4933762;29;20216;-70
2022/02/01 08:36:48;;;;;;;37.45;11.50;;;3.00;99.90;;;3.15;77.12;100582.09;4935304;29;20188;-71
2022/02/01 08:39:17;;;;;;;24.63;11.55;;;3.00;99.90;;;3.19;76.68;100591.47;4935352;29;20555;-70
2022/02/01 08:41:46;;;;;;;19.85;7.65;;;3.10;99.90;;;3.26;76.31;100587.13;4934584;29;20656;-70
2022/02/01 08:44:16;;;;;;;15.50;6.45;;;3.20;99.90;;;3.20;76.46;100588.59;4934429;29;20203;-70
2022/02/01 08:46:46;;;;;;;12.50;6.15;;;3.20;99.90;;;3.29;76.68;100578.81;4935177;29;20249;-70
2022/02/01 08:49:15;;;;;;;13.68;6.15;;;3.20;99.90;;;3.27;76.41;100584.28;4935040;29;20319;-70
2022/02/01 08:51:45;;;;;;;14.60;6.63;;;3.20;99.90;;;3.33;76.33;100582.81;4935514;29;20181;-70
2022/02/01 08:54:19;;;;;;;15.95;6.07;;;3.30;99.90;;;3.34;75.89;100573.81;4935077;29;20181;-71
2022/02/01 08:59:34;;;;;;;17.45;6.03;;;3.30;99.90;;;3.54;75.36;100553.75;4934026;29;20243;-71
2022/02/01 09:02:22;;;;;;;19.38;5.90;;;3.40;99.90;;;3.61;75.34;100543.25;4933865;29;20189;-71
2022/02/01 09:04:52;;;;;;;10.20;5.18;;;3.50;99.90;;;3.64;74.68;100541.06;4935216;29;20253;-71
2022/02/01 09:07:21;;;;;;;20.00;5.47;;;3.50;99.90;;;3.67;74.87;100532.72;4935249;29;20181;-70
2022/02/01 09:09:50;;;;;;;13.35;5.32;;;3.60;99.90;;;3.70;74.37;100527.03;4934772;29;20268;-70
2022/02/01 09:12:18;;;;;;;28.23;6.05;;;3.60;99.90;;;3.79;74.52;100526.00;4933879;29;20182;-71
2022/02/01 09:14:47;;;;;;;16.83;6.93;;;3.70;99.90;;;3.84;74.44;100512.97;4933941;29;20197;-71
2022/02/01 09:17:16;;;;;;;20.40;6.00;;;3.70;99.90;;;3.93;73.63;100511.94;4935164;29;20184;-71
2022/02/01 09:19:45;;;;;;;15.77;5.50;;;3.80;99.90;;;3.90;74.02;100517.66;4935193;29;20209;-71
2022/02/01 09:22:16;;;;;;;14.77;4.80;;;3.80;99.90;;;3.81;73.65;100505.28;4936202;29;20184;-71
2022/02/01 09:24:47;;;;;;;15.90;4.68;;;3.80;99.90;;;3.91;73.92;100511.31;4938809;29;20208;-70
2022/02/01 09:27:15;;;;;;;12.55;4.07;;;3.80;99.90;;;3.86;73.65;100502.94;4938737;29;20181;-73
2022/02/01 09:29:44;;;;;;;12.25;4.10;;;3.80;99.90;;;3.83;74.20;100495.22;4938533;29;20224;-70
2022/02/01 09:32:13;;;;;;;12.05;6.63;;;3.80;99.90;;;3.96;73.83;100483.19;4937341;29;20192;-71
2022/02/01 09:35:01;;;;;;;15.90;3.95;;;3.80;99.90;;;4.03;73.60;100481.47;4936834;29;20185;-71
2022/02/01 09:37:33;;;;;;;11.27;5.00;;;3.90;99.90;;;4.08;73.11;100476.47;4937036;29;20228;-71
2022/02/01 09:40:04;;;;;;;9.90;4.63;;;4.00;99.90;;;4.03;73.20;100481.47;4938219;29;20272;-72
2022/02/01 09:42:32;;;;;;;16.38;3.70;;;4.00;99.90;;;4.22;72.72;100473.06;4938125;29;20615;-69
2022/02/01 09:45:00;;;;;;;5.22;2.20;;;4.10;99.90;;;4.09;72.96;100464.75;4939763;29;20181;-72
2022/02/01 09:47:35;;;;;;;11.27;4.30;;;4.10;99.90;;;4.11;73.48;100465.44;4938883;29;20318;-71
2022/02/01 09:50:06;;;;;;;16.90;4.78;;;4.00;99.90;;;4.06;73.19;100457.06;4937220;29;20310;-70
2022/02/01 09:52:38;;;;;;;14.32;5.22;;;4.00;99.90;;;4.02;73.23;100453.88;4937792;29;20216;-70
2022/02/01 09:55:10;;;;;;;17.08;6.75;;;4.00;99.90;;;4.08;73.62;100447.84;4952546;28;20200;-72
2022/02/01 09:57:43;;;;;;;15.77;4.22;;;4.00;99.90;;;4.14;73.25;100444.50;4952761;28;20569;-71
2022/02/01 10:00:16;;;;;;;9.20;4.45;;;4.00;99.90;;;4.18;73.60;100439.63;4938699;28;20684;-71
2022/02/01 10:03:04;;;;;;;12.07;4.05;;;4.10;99.90;;;4.31;73.49;100429.19;4937722;29;20625;-70
2022/02/01 10:05:35;;;;;;;7.97;3.90;;;4.10;99.90;;;4.35;72.50;100435.91;4937580;29;20204;-70
2022/02/01 10:08:05;;;;;;;5.35;2.67;;;4.20;99.90;;;4.33;72.48;100428.03;4937526;29;20223;-71
2022/02/01 10:10:34;;;;;;;7.38;3.88;;;4.30;99.90;;;4.14;72.99;100424.91;4937708;29;20257;-70
2022/02/01 10:13:12;;;;;;;10.68;4.80;;;4.20;99.90;;;4.21;73.47;100417.88;4937702;29;20188;-72
2022/02/01 10:15:42;;;;;;;14.23;3.78;;;4.10;99.90;;;4.30;72.94;100424.84;4937842;29;20184;-70
2022/02/01 10:18:10;;;;;;;15.25;6.15;;;4.20;99.90;;;4.33;72.83;100427.19;4937191;29;20219;-72
2022/02/01 10:20:42;;;;;;;7.85;4.50;;;4.20;99.90;;;4.35;72.69;100425.19;4937319;29;20188;-71
2022/02/01 10:23:21;;;;;;;9.00;4.60;;;4.30;99.90;;;4.31;72.52;100410.44;4937175;29;20177;-71
2022/02/01 10:26:06;;;;;;;14.20;3.63;;;4.30;99.90;;;4.25;73.02;100409.31;4951515;28;20281;-73
2022/02/01 10:35:55;;;;;;;12.05;3.40;;;4.20;99.90;;;4.41;72.43;100386.13;4936334;29;20295;-74
2022/02/01 10:52:36;;;;;;;13.95;4.28;;;4.30;99.90;;;4.31;72.21;100364.91;4954356;29;20738;-73
2022/02/01 10:55:10;;;;;;;10.05;4.22;;;4.20;99.90;;;4.30;71.33;100352.53;4953606;29;20251;-74
2022/02/01 10:57:39;;;;;;;16.83;4.50;;;4.30;99.90;;;4.41;71.85;100353.97;4953376;29;20184;-72
2022/02/01 11:00:12;;;;;;;12.23;4.22;;;4.30;99.90;;;4.46;71.76;100352.44;4953262;29;20271;-73
2022/02/01 11:02:43;;;;;;;12.90;4.65;;;4.40;99.90;;;4.59;71.59;100346.53;4954695;29;20603;-73
2022/02/01 11:05:17;;;;;;;15.88;4.97;;;4.40;99.90;;;4.60;71.20;100332.13;4953020;29;20628;-74
2022/02/01 11:08:06;;;;;;;15.48;4.45;;;4.50;99.90;;;4.64;71.01;100317.34;4956649;29;20363;-73
2022/02/01 11:10:35;;;;;;;14.35;4.18;;;4.50;99.90;;;4.65;71.13;100313.63;4954666;29;20260;-74
2022/02/01 11:13:09;;;;;;;19.92;4.97;;;4.50;99.90;;;4.65;70.88;100298.38;4938504;29;20503;-73
2022/02/01 11:15:39;;;;;;;13.38;5.22;;;4.50;99.90;;;4.65;71.03;100290.34;4952707;29;20583;-73
2022/02/01 11:21:14;;;;;;;11.57;5.85;;;4.60;99.90;;;4.66;71.32;100275.94;4877977;29;20277;-70
2022/02/01 11:23:49;;;;;;;20.42;4.97;;;4.60;99.90;;;4.65;71.73;100279.63;4874793;29;20189;-71
2022/02/01 11:26:31;;;;;;;15.10;5.00;;;4.60;99.90;;;4.59;71.57;100256.25;4861630;29;20197;-68
2022/02/01 11:31:52;;;;;;;13.38;4.78;;;4.50;99.90;;;4.56;71.35;100231.63;4901613;23;20233;-73
2022/02/01 11:34:30;;;;;;;22.42;6.03;;;4.60;99.90;;;4.53;71.88;100219.44;4988616;28;20183;-73
2022/02/01 11:37:04;;;;;;;17.20;4.68;;;4.50;99.90;;;4.56;71.82;100211.03;4979007;28;20250;-74
2022/02/01 11:39:33;;;;;;;9.50;4.05;;;4.50;99.90;;;4.60;71.99;100212.34;4977618;28;20190;-73
2022/02/01 11:42:12;;;;;;;7.90;4.70;;;4.50;99.90;;;4.57;72.12;100204.66;4981338;28;20269;-74
2022/02/01 11:44:41;;;;;;;20.90;5.90;;;4.50;99.90;;;4.61;72.24;100205.97;4985355;28;20711;-73
2022/02/01 11:47:13;;;;;;;7.70;3.60;;;4.50;99.90;;;4.63;72.19;100187.88;4975054;28;20238;-71
2022/02/01 11:49:55;;;;;;;25.48;4.95;;;4.50;99.90;;;4.73;72.17;100182.25;4977230;28;20439;-72
2022/02/01 11:52:28;;;;;;;12.23;4.05;;;4.60;99.90;;;4.65;71.71;100179.63;4982385;28;20261;-73
2022/02/01 11:55:08;;;;;;;9.93;3.65;;;4.60;99.90;;;4.74;71.24;100168.66;4987014;28;20672;-72
2022/02/01 11:58:03;;;;;;;13.73;3.63;;;4.70;99.90;;;4.72;70.79;100157.31;4968966;28;20249;-73
2022/02/01 12:00:39;;;;;;;11.70;5.07;;;4.70;99.90;;;4.79;71.10;100154.75;4977045;28;20183;-73
2022/02/01 12:03:09;;;;;;;14.00;5.03;;;4.70;99.90;;;4.80;70.30;100157.22;4976902;28;20218;-73
2022/02/01 12:05:42;;;;;;;22.10;4.50;;;4.80;99.90;;;4.90;70.65;100140.03;4983804;28;20179;-73
2022/02/01 12:08:15;;;;;;;14.88;4.50;;;4.80;99.90;;;4.99;70.24;100136.25;4982496;28;20187;-74